»·PEaware :: AAL920 KLAX-KLAS

AAL920 :: KLAX-KLAS

FLIGHT INFORMATION

Flight Status: Arrived
Operator:
American Airlines
More flights by this operator :: More flights under this callsign
Pilot: Gabriel S. (32862)
Aircraft: AIRBUS A321
(A321)
More flights by this aircraft type
Origin: KLAX Los Angeles Intl
United States
Destination: KLAS McCarran Intl
United States
More flights between these airports :: More routes between these airports
Route: OSHNN9 MISEN KEPEC6
File this flight plan on PilotEdge
Remarks: RMK / SIMBRIEF
Altitude:
(Current/Filed)
33,000ft
Speed:
(Current/Filed)
436kts
Departed: 07-Jan-21 09:30 PM
Arrived: 07-Jan-21 10:28 PM
Distance/Time
Traveled:
205nm/0:57
Distance/Time
To Go:
Arrived

Flight Plot

Page will automatically refresh every two minutes.

Flight plan parsing failed; only flown route is shown


Map Options




Map Legend


Flown Route
Filed Route
Departure Airport
Arrival Airport
Navaid (VOR, NDB)
Fix

Horizontal Profiles

Position Reports

Time Latitude Longitude Heading Altitude Ground
Speed
07-Jan-21 21:10 33.940664 -118.403808 254 129ft 0kts
07-Jan-21 21:11 33.940664 -118.403808 254 129ft 0kts
07-Jan-21 21:12 33.940664 -118.403808 254 129ft 0kts
07-Jan-21 21:13 33.940664 -118.403808 254 129ft 0kts
07-Jan-21 21:14 33.940664 -118.403808 254 129ft 0kts
07-Jan-21 21:15 33.940664 -118.403808 254 129ft 0kts
07-Jan-21 21:16 33.940664 -118.403808 254 129ft 0kts
07-Jan-21 21:17 33.940664 -118.403808 254 129ft 0kts
07-Jan-21 21:18 33.940664 -118.403808 254 129ft 0kts
07-Jan-21 21:19 33.940692 -118.403690 250 129ft 2kts
07-Jan-21 21:20 33.941150 -118.403278 184 128ft 2kts
07-Jan-21 21:21 33.941314 -118.403289 172 128ft 0kts
07-Jan-21 21:22 33.941314 -118.403289 172 128ft 0kts
07-Jan-21 21:23 33.941286 -118.403287 176 128ft 1kts
07-Jan-21 21:24 33.939310 -118.402993 173 127ft 13kts
07-Jan-21 21:25 33.938915 -118.398704 83 118ft 20kts
07-Jan-21 21:26 33.939696 -118.391021 83 109ft 25kts
07-Jan-21 21:27 33.940500 -118.383176 83 104ft 20kts
07-Jan-21 21:28 33.940740 -118.380434 105 102ft 1kts
07-Jan-21 21:29 33.939265 -118.385848 262 107ft 91kts
07-Jan-21 21:30 33.933851 -118.436521 263 1896ft 163kts
07-Jan-21 21:31 33.907574 -118.494852 230 3369ft 233kts
07-Jan-21 21:32 33.856164 -118.557802 196 5944ft 273kts
07-Jan-21 21:33 33.779496 -118.542877 167 8964ft 286kts
07-Jan-21 21:34 33.698737 -118.511357 135 10987ft 329kts
07-Jan-21 21:35 33.661580 -118.401812 109 12660ft 373kts
07-Jan-21 21:36 33.643609 -118.273774 89 14590ft 400kts
07-Jan-21 21:37 33.674473 -118.149682 35 16542ft 406kts
07-Jan-21 21:38 33.767535 -118.068310 33 18374ft 421kts
07-Jan-21 21:40 33.862874 -117.983009 33 20157ft 433kts
07-Jan-21 21:41 33.959440 -117.895433 33 21783ft 444kts
07-Jan-21 21:42 34.059149 -117.803946 35 23312ft 455kts
07-Jan-21 21:43 34.147632 -117.691107 48 24727ft 470kts
07-Jan-21 21:44 34.229864 -117.568245 47 25975ft 480kts
07-Jan-21 21:45 34.313265 -117.443843 47 27813ft 473kts
07-Jan-21 21:46 34.395533 -117.320685 47 29305ft 470kts
07-Jan-21 21:47 34.477477 -117.197291 47 30561ft 469kts
07-Jan-21 21:48 34.559597 -117.074159 46 31592ft 470kts
07-Jan-21 21:49 34.641617 -116.954981 45 32621ft 470kts
07-Jan-21 21:50 34.725513 -116.832538 45 33214ft 480kts
07-Jan-21 21:51 34.809806 -116.708830 45 32532ft 465kts
07-Jan-21 21:52 34.899353 -116.599261 33 31095ft 456kts
07-Jan-21 21:53 35.000968 -116.501661 34 27849ft 476kts
07-Jan-21 21:54 35.105446 -116.397956 39 24242ft 493kts
07-Jan-21 21:55 35.198507 -116.282785 43 23004ft 467kts
07-Jan-21 21:56 35.287629 -116.170460 43 20874ft 453kts
07-Jan-21 21:57 35.373882 -116.061763 43 18761ft 440kts
07-Jan-21 21:57 35.441524 -115.976323 43 17076ft 431kts
07-Jan-21 21:58 35.523908 -115.871962 44 14875ft 421kts
07-Jan-21 22:00 35.611330 -115.760761 44 13377ft 331kts
07-Jan-21 22:01 35.670286 -115.685651 44 13004ft 291kts
07-Jan-21 22:01 35.716719 -115.626357 44 12991ft 286kts
07-Jan-21 22:02 35.779524 -115.572770 0 12993ft 277kts
07-Jan-21 22:03 35.855516 -115.569394 359 12991ft 277kts
07-Jan-21 22:04 35.931212 -115.565239 359 12991ft 277kts
07-Jan-21 22:05 35.988559 -115.510915 68 12382ft 293kts
07-Jan-21 22:06 36.017410 -115.416570 67 11145ft 290kts
07-Jan-21 22:07 36.027418 -115.325298 95 10567ft 276kts
07-Jan-21 22:08 36.020220 -115.232356 94 9364ft 267kts
07-Jan-21 22:10 36.013012 -115.128758 93 8417ft 248kts
07-Jan-21 22:10 36.008553 -115.061592 92 8003ft 231kts
07-Jan-21 22:11 36.003842 -114.981703 92 7994ft 233kts
07-Jan-21 22:12 35.999100 -114.901757 93 7993ft 233kts
07-Jan-21 22:13 35.994210 -114.821375 93 7994ft 233kts
07-Jan-21 22:14 35.988927 -114.741632 93 7994ft 233kts
07-Jan-21 22:15 35.983616 -114.661727 93 7990ft 227kts
07-Jan-21 22:16 36.002271 -114.605285 17 7992ft 185kts
07-Jan-21 22:17 36.052997 -114.601949 334 7963ft 184kts
07-Jan-21 22:18 36.067763 -114.660596 276 7995ft 190kts
07-Jan-21 22:19 36.072812 -114.725740 275 7992ft 190kts
07-Jan-21 22:20 36.074351 -114.790915 271 7417ft 188kts
07-Jan-21 22:21 36.074309 -114.855100 271 6428ft 185kts
07-Jan-21 22:22 36.074121 -114.919878 270 5444ft 190kts
07-Jan-21 22:23 36.073911 -114.981787 270 4474ft 179kts
07-Jan-21 22:24 36.073751 -115.037089 269 3543ft 149kts
07-Jan-21 22:25 36.073733 -115.087567 269 2849ft 148kts
07-Jan-21 22:26 36.073686 -115.137527 270 2188ft 122kts
07-Jan-21 22:27 36.073928 -115.153104 288 2187ft 19kts
07-Jan-21 22:28 36.077351 -115.158219 350 2187ft 8kts
07-Jan-21 22:29 36.078039 -115.157200 89 2187ft 21kts
07-Jan-21 22:30 36.077861 -115.148079 95 2187ft 26kts
07-Jan-21 22:31 36.077563 -115.139300 89 2187ft 25kts
07-Jan-21 22:32 36.079188 -115.139490 338 2187ft 9kts

Navigation Log

Ident Type
Flight plan parsing failed, navigation log unavailable